Terminal Aerodrome Forecast
Issued by NWS Kansas City/Pleasant Hill, MO

Home | Current Version | Previous Version | Text Only | Print | Product List | Glossary On
Versions: 1 2 3 4 5 6 7 8 9 10 11 12 13 14 15 16 17 18 19 20 21 22 23 24 25 26
167
FTUS43 KEAX 130520
TAFMCI
TAF
KMCI 130520Z 1306/1406 18005KT P6SM FEW150
     FM132000 22008KT P6SM SCT120
     FM140200 29010KT P6SM BKN100=

USA.gov is the U.S. government's official web portal to all federal, state and local government web resources and services.